Time,TemperatureF,DewpointF,PressureIn,WindDirection,WindDirectionDegrees,WindSpeedMPH,WindSpeedGustMPH,Humidity,HourlyPrecipIn,Conditions,Clouds,dailyrainin,SoftwareType,DateUTC
2013-01-15 00:01:00,48.3,48.3,30.15,ENE,66,0.0,3.0,100,0.15,,---,1.30,VWS V14.01,2013-01-15 05:01:00,
2013-01-15 00:07:00,48.0,48.0,30.15,NE,53,1.0,5.0,100,0.16,,---,1.31,VWS V14.01,2013-01-15 05:07:00,
2013-01-15 00:09:00,48.0,48.0,30.16,SSE,160,2.0,5.0,100,0.16,,---,1.31,VWS V14.01,2013-01-15 05:09:00,
2013-01-15 00:13:00,48.0,48.0,30.16,SSE,160,2.0,5.0,100,0.16,,---,1.31,VWS V14.01,2013-01-15 05:13:00,
2013-01-15 00:19:00,48.0,48.0,30.16,NNE,20,3.0,5.0,100,0.16,,---,0.00,VWS V14.01,2013-01-15 05:19:00,
2013-01-15 00:25:00,47.9,47.9,30.16,ENE,73,2.0,2.0,100,0.06,,---,0.00,VWS V14.01,2013-01-15 05:25:00,
2013-01-15 00:31:00,47.9,47.9,30.16,ENE,72,0.0,2.0,100,0.07,,---,0.01,VWS V14.01,2013-01-15 05:31:00,
2013-01-15 00:37:00,47.9,47.9,30.16,ENE,63,0.0,3.0,100,0.07,,---,0.01,VWS V14.01,2013-01-15 05:37:00,
2013-01-15 00:43:00,47.7,47.7,30.16,ENE,63,0.0,3.0,100,0.04,,---,0.02,VWS V14.01,2013-01-15 05:43:00,
2013-01-15 00:49:00,47.7,47.7,30.16,ENE,70,2.0,3.0,100,0.04,,---,0.02,VWS V14.01,2013-01-15 05:49:00,
2013-01-15 00:55:00,47.7,47.7,30.16,ENE,70,1.0,3.0,100,0.04,,---,0.03,VWS V14.01,2013-01-15 05:55:00,
2013-01-15 01:01:00,47.6,47.6,30.16,ENE,70,0.0,3.0,100,0.04,,---,0.03,VWS V14.01,2013-01-15 06:01:00,
2013-01-15 01:07:00,47.6,47.6,30.16,ENE,64,2.0,3.0,100,0.04,,---,0.03,VWS V14.01,2013-01-15 06:07:00,
2013-01-15 01:13:00,47.4,47.4,30.15,East,91,2.0,4.0,100,0.03,,---,0.03,VWS V14.01,2013-01-15 06:13:00,
2013-01-15 01:19:00,47.3,47.3,30.15,ENE,78,2.0,4.0,100,0.03,,---,0.03,VWS V14.01,2013-01-15 06:19:00,
2013-01-15 01:26:00,47.3,47.3,30.14,NE,53,1.0,5.0,100,0.03,,---,0.03,VWS V14.01,2013-01-15 06:26:00,
2013-01-15 01:32:00,47.0,47.0,30.14,ENE,60,0.0,7.0,100,0.03,,---,0.03,VWS V14.01,2013-01-15 06:32:00,
2013-01-15 01:38:00,46.8,46.8,30.14,ENE,70,2.0,7.0,100,0.03,,---,0.03,VWS V14.01,2013-01-15 06:38:00,
2013-01-15 01:44:00,46.5,46.5,30.15,ENE,70,0.0,4.0,100,0.02,,---,0.03,VWS V14.01,2013-01-15 06:44:00,
2013-01-15 01:50:00,46.5,46.5,30.15,ENE,71,2.0,4.0,100,0.02,,---,0.03,VWS V14.01,2013-01-15 06:50:00,
2013-01-15 01:56:00,46.4,46.4,30.17,ENE,61,0.0,2.0,100,0.00,,---,0.03,VWS V14.01,2013-01-15 06:56:00,
2013-01-15 02:02:00,46.2,46.2,30.17,ENE,66,0.0,3.0,100,0.00,,---,0.03,VWS V14.01,2013-01-15 07:02:00,
2013-01-15 02:08:00,46.2,46.2,30.17,ENE,66,1.0,3.0,100,0.01,,---,0.04,VWS V14.01,2013-01-15 07:08:00,
2013-01-15 02:14:00,46.2,46.2,30.17,ENE,74,3.0,4.0,100,0.01,,---,0.04,VWS V14.01,2013-01-15 07:14:00,
2013-01-15 02:20:00,46.1,46.1,30.17,ENE,70,0.0,4.0,100,0.01,,---,0.04,VWS V14.01,2013-01-15 07:20:00,
2013-01-15 02:26:00,46.0,46.0,30.17,ENE,68,2.0,5.0,100,0.02,,---,0.05,VWS V14.01,2013-01-15 07:26:00,
2013-01-15 02:32:00,45.7,45.7,30.17,East,89,0.0,5.0,100,0.02,,---,0.05,VWS V14.01,2013-01-15 07:32:00,
2013-01-15 02:38:00,45.5,45.5,30.14,ENE,72,6.0,6.0,100,0.02,,---,0.05,VWS V14.01,2013-01-15 07:38:00,
2013-01-15 02:44:00,45.2,45.2,30.14,ENE,73,0.0,3.0,100,0.02,,---,0.05,VWS V14.01,2013-01-15 07:44:00,
2013-01-15 02:50:00,45.1,45.1,30.14,ENE,74,3.0,3.0,100,0.02,,---,0.05,VWS V14.01,2013-01-15 07:50:00,
2013-01-15 02:56:00,44.8,44.8,30.14,ENE,65,0.0,4.0,100,0.02,,---,0.05,VWS V14.01,2013-01-15 07:56:00,
2013-01-15 03:01:00,44.3,44.3,30.15,ENE,68,0.0,6.0,100,0.03,,---,0.06,VWS V14.01,2013-01-15 08:01:00,
2013-01-15 03:02:00,44.6,44.6,30.14,ENE,67,0.0,6.0,100,0.02,,---,0.05,VWS V14.01,2013-01-15 08:02:00,
2013-01-15 03:08:00,44.3,44.3,30.15,ENE,68,1.0,6.0,100,0.03,,---,0.06,VWS V14.01,2013-01-15 08:08:00,
2013-01-15 03:15:00,44.2,44.2,30.15,ENE,66,0.0,6.0,100,0.03,,---,0.06,VWS V14.01,2013-01-15 08:15:00,
2013-01-15 03:21:00,44.1,44.1,30.15,NE,53,0.0,6.0,100,0.03,,---,0.06,VWS V14.01,2013-01-15 08:21:00,
2013-01-15 03:27:00,44.1,44.1,30.15,NE,53,0.0,2.0,100,0.01,,---,0.06,VWS V14.01,2013-01-15 08:27:00,
2013-01-15 03:33:00,44.1,44.1,30.15,NE,54,0.0,2.0,100,0.01,,---,0.06,VWS V14.01,2013-01-15 08:33:00,
2013-01-15 03:39:00,44.1,44.1,30.14,NE,54,0.0,3.0,100,0.01,,---,0.06,VWS V14.01,2013-01-15 08:39:00,
2013-01-15 03:45:00,44.1,44.1,30.14,ENE,57,2.0,2.0,100,0.01,,---,0.06,VWS V14.01,2013-01-15 08:45:00,
2013-01-15 03:51:00,43.9,43.9,30.14,ENE,58,0.0,2.0,100,0.01,,---,0.06,VWS V14.01,2013-01-15 08:51:00,
2013-01-15 03:57:00,43.8,43.8,30.14,ENE,57,0.0,2.0,100,0.01,,---,0.06,VWS V14.01,2013-01-15 08:57:00,
2013-01-15 04:03:00,43.8,43.8,30.14,ENE,57,0.0,2.0,100,0.01,,---,0.06,VWS V14.01,2013-01-15 09:03:00,
2013-01-15 04:09:00,43.8,43.8,30.12,ENE,68,4.0,4.0,100,0.02,,---,0.07,VWS V14.01,2013-01-15 09:09:00,
2013-01-15 04:15:00,43.8,43.8,30.12,NE,55,0.0,4.0,100,0.02,,---,0.07,VWS V14.01,2013-01-15 09:15:00,
2013-01-15 04:21:00,43.6,43.6,30.12,NE,55,0.0,4.0,100,0.02,,---,0.07,VWS V14.01,2013-01-15 09:21:00,
2013-01-15 04:27:00,43.6,43.6,30.13,NE,55,0.0,1.0,100,0.01,,---,0.07,VWS V14.01,2013-01-15 09:27:00,
2013-01-15 04:33:00,43.6,43.6,30.13,NE,55,0.0,1.0,100,0.01,,---,0.07,VWS V14.01,2013-01-15 09:33:00,
2013-01-15 04:39:00,43.6,43.6,30.13,NE,54,0.0,1.0,100,0.01,,---,0.07,VWS V14.01,2013-01-15 09:39:00,
2013-01-15 04:45:00,43.5,43.5,30.13,NE,53,0.0,1.0,100,0.01,,---,0.07,VWS V14.01,2013-01-15 09:45:00,
2013-01-15 04:51:00,43.5,43.5,30.13,NE,53,0.0,1.0,100,0.01,,---,0.07,VWS V14.01,2013-01-15 09:51:00,
2013-01-15 04:57:00,43.5,43.5,30.12,NE,53,0.0,0.0,100,0.02,,---,0.08,VWS V14.01,2013-01-15 09:57:00,
2013-01-15 05:03:00,43.6,43.6,30.12,NE,53,0.0,0.0,100,0.02,,---,0.08,VWS V14.01,2013-01-15 10:03:00,
2013-01-15 05:09:00,43.6,43.6,30.11,NE,53,1.0,2.0,100,0.02,,---,0.08,VWS V14.01,2013-01-15 10:09:00,
2013-01-15 05:15:00,43.6,43.6,30.11,NE,53,0.0,2.0,100,0.02,,---,0.08,VWS V14.01,2013-01-15 10:15:00,
2013-01-15 05:16:00,43.5,43.5,30.12,NE,53,0.0,1.0,100,0.02,,---,0.09,VWS V14.01,2013-01-15 10:16:00,
2013-01-15 05:20:00,43.5,43.5,30.12,NE,53,0.0,1.0,100,0.03,,---,0.10,VWS V14.01,2013-01-15 10:20:00,
2013-01-15 05:21:00,43.5,43.5,30.11,NE,53,0.0,2.0,100,0.03,,---,0.09,VWS V14.01,2013-01-15 10:21:00,
2013-01-15 05:28:00,43.5,43.5,30.12,NE,53,0.0,1.0,100,0.02,,---,0.09,VWS V14.01,2013-01-15 10:28:00,
2013-01-15 05:34:00,43.5,43.5,30.12,NE,53,0.0,1.0,100,0.04,,---,0.11,VWS V14.01,2013-01-15 10:34:00,
2013-01-15 05:39:00,43.5,43.5,30.11,NE,53,0.0,2.0,100,0.04,,---,0.11,VWS V14.01,2013-01-15 10:39:00,
2013-01-15 05:44:00,43.3,43.3,30.11,NNE,21,0.0,1.0,100,0.05,,---,0.12,VWS V14.01,2013-01-15 10:44:00,
2013-01-15 05:50:00,43.3,43.3,30.11,NNE,21,0.0,1.0,100,0.06,,---,0.13,VWS V14.01,2013-01-15 10:50:00,
2013-01-15 05:56:00,43.2,43.2,30.12,NE,48,1.0,1.0,100,0.07,,---,0.14,VWS V14.01,2013-01-15 10:56:00,
2013-01-15 06:02:00,43.1,43.1,30.12,NNE,32,0.0,3.0,100,0.10,,---,0.17,VWS V14.01,2013-01-15 11:02:00,
2013-01-15 06:08:00,43.1,43.1,30.12,NNE,15,0.0,3.0,100,0.10,,---,0.17,VWS V14.01,2013-01-15 11:08:00,
2013-01-15 06:14:00,43.1,43.1,30.12,NNE,15,0.0,3.0,100,0.11,,---,0.18,VWS V14.01,2013-01-15 11:14:00,
2013-01-15 06:20:00,43.1,43.1,30.12,NNE,15,0.0,3.0,100,0.11,,---,0.18,VWS V14.01,2013-01-15 11:20:00,
2013-01-15 06:26:00,43.1,43.1,30.11,East,79,0.0,2.0,100,0.12,,---,0.21,VWS V14.01,2013-01-15 11:26:00,
2013-01-15 06:32:00,43.1,43.1,30.11,East,79,0.0,2.0,100,0.13,,---,0.22,VWS V14.01,2013-01-15 11:32:00,
2013-01-15 06:38:00,42.9,42.9,30.13,North,352,1.0,2.0,100,0.14,,---,0.23,VWS V14.01,2013-01-15 11:38:00,
2013-01-15 06:44:00,42.9,42.9,30.13,North,352,0.0,1.0,100,0.13,,---,0.24,VWS V14.01,2013-01-15 11:44:00,
2013-01-15 06:50:00,42.9,42.9,30.13,North,352,0.0,1.0,100,0.13,,---,0.24,VWS V14.01,2013-01-15 11:50:00,
2013-01-15 06:56:00,42.8,42.8,30.13,NNE,18,0.0,1.0,100,0.11,,---,0.24,VWS V14.01,2013-01-15 11:56:00,
2013-01-15 07:02:00,42.8,42.8,30.13,NNE,32,0.0,2.0,100,0.12,,---,0.25,VWS V14.01,2013-01-15 12:02:00,
2013-01-15 07:08:00,42.8,42.8,30.13,NNE,32,0.0,2.0,100,0.13,,---,0.26,VWS V14.01,2013-01-15 12:08:00,
2013-01-15 07:14:00,42.8,42.8,30.13,NNE,32,0.0,0.0,100,0.06,,---,0.26,VWS V14.01,2013-01-15 12:14:00,
2013-01-15 07:20:00,42.8,42.8,30.13,NNE,20,0.0,1.0,100,0.06,,---,0.26,VWS V14.01,2013-01-15 12:20:00,
2013-01-15 07:26:00,42.6,42.6,30.14,NNE,19,0.0,2.0,100,0.07,,---,0.27,VWS V14.01,2013-01-15 12:26:00,
2013-01-15 07:32:00,42.6,42.6,30.14,North,359,2.0,3.0,100,0.08,,---,0.28,VWS V14.01,2013-01-15 12:32:00,
2013-01-15 07:37:00,42.5,42.5,30.16,NNE,32,0.0,5.0,100,0.08,,---,0.31,VWS V14.01,2013-01-15 12:37:00,
2013-01-15 07:38:00,42.5,42.5,30.16,NNE,18,0.0,3.0,100,0.08,,---,0.28,VWS V14.01,2013-01-15 12:38:00,
2013-01-15 07:45:00,42.5,42.5,30.16,NNE,32,1.0,5.0,100,0.07,,---,0.30,VWS V14.01,2013-01-15 12:45:00,
2013-01-15 07:51:00,42.5,42.5,30.16,North,1,6.0,6.0,100,0.09,,---,0.32,VWS V14.01,2013-01-15 12:51:00,
2013-01-15 07:57:00,42.5,42.5,30.17,NNE,14,2.0,2.0,100,0.12,,---,0.36,VWS V14.01,2013-01-15 12:57:00,
2013-01-15 08:03:00,42.5,42.5,30.17,NNE,15,3.0,3.0,100,0.16,,---,0.40,VWS V14.01,2013-01-15 13:03:00,
2013-01-15 08:09:00,42.5,42.5,30.18,ENE,63,0.0,3.0,100,0.18,,---,0.42,VWS V14.01,2013-01-15 13:09:00,
2013-01-15 08:15:00,42.3,42.3,30.18,North,4,0.0,3.0,100,0.21,,---,0.45,VWS V14.01,2013-01-15 13:15:00,
2013-01-15 08:21:00,42.3,42.3,30.18,North,4,0.0,3.0,100,0.24,,---,0.48,VWS V14.01,2013-01-15 13:21:00,
2013-01-15 08:27:00,42.3,42.3,30.18,North,4,0.0,0.0,100,0.24,,---,0.50,VWS V14.01,2013-01-15 13:27:00,
2013-01-15 08:33:00,42.3,42.3,30.18,North,4,0.0,0.0,100,0.26,,---,0.52,VWS V14.01,2013-01-15 13:33:00,
2013-01-15 08:39:00,42.3,42.3,30.20,North,4,0.0,2.0,100,0.29,,---,0.55,VWS V14.01,2013-01-15 13:39:00,
2013-01-15 08:45:00,42.3,42.3,30.20,North,4,1.0,1.0,100,0.29,,---,0.58,VWS V14.01,2013-01-15 13:45:00,
2013-01-15 08:51:00,42.3,42.3,30.20,North,4,0.0,1.0,100,0.32,,---,0.60,VWS V14.01,2013-01-15 13:51:00,
2013-01-15 08:57:00,42.3,42.3,30.19,NNE,18,0.0,2.0,100,0.28,,---,0.62,VWS V14.01,2013-01-15 13:57:00,
2013-01-15 09:03:00,42.5,42.5,30.19,ENE,63,0.0,3.0,100,0.29,,---,0.63,VWS V14.01,2013-01-15 14:03:00,
2013-01-15 09:09:00,42.5,42.5,30.19,ENE,67,0.0,3.0,100,0.30,,---,0.65,VWS V14.01,2013-01-15 14:09:00,
2013-01-15 09:15:00,42.3,42.3,30.19,ENE,67,0.0,3.0,100,0.33,,---,0.67,VWS V14.01,2013-01-15 14:15:00,
2013-01-15 09:21:00,42.2,42.2,30.19,ENE,67,1.0,3.0,100,0.35,,---,0.69,VWS V14.01,2013-01-15 14:21:00,
2013-01-15 09:27:00,42.2,42.2,30.19,ENE,63,0.0,2.0,100,0.21,,---,0.70,VWS V14.01,2013-01-15 14:27:00,
2013-01-15 09:33:00,42.1,42.1,30.19,ENE,63,0.0,3.0,100,0.22,,---,0.71,VWS V14.01,2013-01-15 14:33:00,
2013-01-15 09:39:00,41.9,41.9,30.20,ENE,63,0.0,3.0,100,0.23,,---,0.72,VWS V14.01,2013-01-15 14:39:00,
2013-01-15 09:45:00,41.8,41.8,30.20,North,11,0.0,2.0,100,0.18,,---,0.73,VWS V14.01,2013-01-15 14:45:00,
2013-01-15 09:51:00,41.8,41.8,30.20,NNE,27,1.0,2.0,100,0.20,,---,0.75,VWS V14.01,2013-01-15 14:51:00,
2013-01-15 09:57:00,41.8,41.8,30.21,NNE,27,0.0,1.0,100,0.17,,---,0.77,VWS V14.01,2013-01-15 14:57:00,
2013-01-15 10:03:00,41.8,41.8,30.21,NNE,27,0.0,1.0,100,0.19,,---,0.79,VWS V14.01,2013-01-15 15:03:00,
2013-01-15 10:09:00,41.9,41.9,30.21,NNE,27,2.0,2.0,100,0.21,,---,0.81,VWS V14.01,2013-01-15 15:09:00,
2013-01-15 10:15:00,41.9,41.9,30.21,ENE,57,0.0,2.0,100,0.13,,---,0.82,VWS V14.01,2013-01-15 15:15:00,
2013-01-15 10:21:00,41.9,41.9,30.21,ENE,70,2.0,3.0,100,0.16,,---,0.85,VWS V14.01,2013-01-15 15:21:00,
2013-01-15 10:22:00,41.8,41.8,30.21,ENE,63,2.0,3.0,100,0.18,,---,0.87,VWS V14.01,2013-01-15 15:22:00,
2013-01-15 10:24:00,41.8,41.8,30.21,ENE,60,1.0,3.0,100,0.19,,---,0.88,VWS V14.01,2013-01-15 15:24:00,
2013-01-15 10:27:00,41.8,41.8,30.21,ENE,63,2.0,3.0,100,0.17,,---,0.86,VWS V14.01,2013-01-15 15:27:00,
2013-01-15 10:36:00,41.6,41.6,30.21,NE,56,2.0,3.0,100,0.19,,---,0.88,VWS V14.01,2013-01-15 15:36:00,
2013-01-15 10:42:00,41.6,41.6,30.20,NE,54,3.0,3.0,100,0.17,,---,0.89,VWS V14.01,2013-01-15 15:42:00,
2013-01-15 10:48:00,41.6,41.6,30.20,ENE,65,0.0,4.0,100,0.17,,---,0.89,VWS V14.01,2013-01-15 15:48:00,
2013-01-15 10:54:00,41.6,41.6,30.20,ENE,67,0.0,4.0,100,0.18,,---,0.90,VWS V14.01,2013-01-15 15:54:00,
2013-01-15 11:00:00,41.5,41.5,30.20,ENE,64,2.0,6.0,100,0.15,,---,0.91,VWS V14.01,2013-01-15 16:00:00,
2013-01-15 11:06:00,41.5,41.5,30.20,NE,52,3.0,6.0,100,0.16,,---,0.92,VWS V14.01,2013-01-15 16:06:00,
2013-01-15 11:12:00,41.3,41.3,30.20,NE,55,2.0,6.0,100,0.16,,---,0.92,VWS V14.01,2013-01-15 16:12:00,
2013-01-15 11:18:00,41.2,41.2,30.20,ENE,62,2.0,6.0,100,0.18,,---,0.95,VWS V14.01,2013-01-15 16:18:00,
2013-01-15 11:24:00,41.2,41.2,30.19,ENE,65,0.0,6.0,100,0.19,,---,0.95,VWS V14.01,2013-01-15 16:24:00,
2013-01-15 11:30:00,41.2,41.2,30.19,ENE,64,2.0,3.0,100,0.11,,---,0.97,VWS V14.01,2013-01-15 16:30:00,
2013-01-15 11:36:00,41.2,41.2,30.19,NE,53,2.0,4.0,100,0.11,,---,0.97,VWS V14.01,2013-01-15 16:36:00,
2013-01-15 11:42:00,41.1,41.1,30.20,ENE,60,1.0,2.0,100,0.10,,---,0.98,VWS V14.01,2013-01-15 16:42:00,
2013-01-15 11:48:00,41.1,41.1,30.20,ENE,58,0.0,3.0,100,0.10,,---,0.98,VWS V14.01,2013-01-15 16:48:00,
2013-01-15 11:54:00,41.2,41.2,30.18,ENE,59,0.0,3.0,100,0.12,,---,1.00,VWS V14.01,2013-01-15 16:54:00,
2013-01-15 12:00:00,41.2,41.2,30.18,NNW,347,0.0,2.0,100,0.10,,---,1.00,VWS V14.01,2013-01-15 17:00:00,
2013-01-15 12:06:00,40.8,40.8,30.18,North,0,0.0,3.0,100,0.11,,---,1.01,VWS V14.01,2013-01-15 17:06:00,
2013-01-15 12:12:00,40.8,40.8,30.18,North,0,0.0,4.0,100,0.12,,---,1.02,VWS V14.01,2013-01-15 17:12:00,
2013-01-15 12:18:00,40.9,40.9,30.18,East,93,2.0,4.0,100,0.12,,---,1.02,VWS V14.01,2013-01-15 17:18:00,
2013-01-15 12:24:00,40.9,40.9,30.17,ENE,65,0.0,4.0,100,0.12,,---,1.02,VWS V14.01,2013-01-15 17:24:00,
2013-01-15 12:30:00,40.9,40.9,30.17,NE,50,1.0,2.0,100,0.08,,---,1.03,VWS V14.01,2013-01-15 17:30:00,
2013-01-15 12:36:00,41.1,41.1,30.17,ENE,58,2.0,3.0,100,0.08,,---,1.03,VWS V14.01,2013-01-15 17:36:00,
2013-01-15 12:42:00,41.2,41.2,30.16,ENE,58,0.0,3.0,100,0.05,,---,1.03,VWS V14.01,2013-01-15 17:42:00,
2013-01-15 12:48:00,41.2,41.2,30.16,ENE,58,0.0,3.0,100,0.06,,---,1.04,VWS V14.01,2013-01-15 17:48:00,
2013-01-15 12:54:00,41.1,41.1,30.16,ENE,58,0.0,3.0,100,0.06,,---,1.04,VWS V14.01,2013-01-15 17:54:00,
2013-01-15 13:00:00,41.1,41.1,30.16,South,174,0.0,1.0,100,0.05,,---,1.05,VWS V14.01,2013-01-15 18:00:00,
2013-01-15 13:06:00,40.9,40.9,30.16,North,359,0.0,2.0,100,0.06,,---,1.06,VWS V14.01,2013-01-15 18:06:00,
2013-01-15 13:12:00,40.9,40.9,30.16,North,359,0.0,2.0,100,0.06,,---,1.06,VWS V14.01,2013-01-15 18:12:00,
2013-01-15 13:17:00,41.2,41.2,30.16,ENE,73,0.0,3.0,100,0.08,,---,1.10,VWS V14.01,2013-01-15 18:17:00,
2013-01-15 13:18:00,41.1,41.1,30.16,North,0,0.0,2.0,100,0.09,,---,1.09,VWS V14.01,2013-01-15 18:18:00,
2013-01-15 13:19:00,41.2,41.2,30.16,ENE,64,3.0,3.0,100,0.09,,---,1.11,VWS V14.01,2013-01-15 18:19:00,
2013-01-15 13:21:00,41.2,41.2,30.16,ENE,64,0.0,3.0,100,0.09,,---,1.11,VWS V14.01,2013-01-15 18:21:00,
2013-01-15 13:24:00,41.1,41.1,30.16,North,0,1.0,2.0,100,0.10,,---,1.10,VWS V14.01,2013-01-15 18:24:00,
2013-01-15 13:25:00,41.2,41.2,30.16,ENE,62,1.0,3.0,100,0.10,,---,1.12,VWS V14.01,2013-01-15 18:25:00,
2013-01-15 13:27:00,41.2,41.2,30.16,ENE,63,0.0,3.0,100,0.10,,---,1.12,VWS V14.01,2013-01-15 18:27:00,
2013-01-15 13:33:00,41.2,41.2,30.16,ENE,62,3.0,3.0,100,0.09,,---,1.11,VWS V14.01,2013-01-15 18:33:00,
2013-01-15 13:39:00,41.2,41.2,30.15,ENE,63,0.0,3.0,100,0.10,,---,1.12,VWS V14.01,2013-01-15 18:39:00,
2013-01-15 13:45:00,41.2,41.2,30.15,ENE,58,0.0,2.0,100,0.10,,---,1.13,VWS V14.01,2013-01-15 18:45:00,
2013-01-15 13:51:00,41.2,41.2,30.15,ENE,58,0.0,2.0,100,0.11,,---,1.14,VWS V14.01,2013-01-15 18:51:00,
2013-01-15 13:57:00,41.2,41.2,30.15,ENE,58,0.0,1.0,100,0.11,,---,1.15,VWS V14.01,2013-01-15 18:57:00,
2013-01-15 14:03:00,41.2,41.2,30.15,ENE,58,0.0,1.0,100,0.13,,---,1.17,VWS V14.01,2013-01-15 19:03:00,
2013-01-15 14:09:00,41.3,41.3,30.15,NE,39,0.0,4.0,100,0.14,,---,1.18,VWS V14.01,2013-01-15 19:09:00,
2013-01-15 14:15:00,41.3,41.3,30.15,NE,40,0.0,4.0,100,0.14,,---,1.18,VWS V14.01,2013-01-15 19:15:00,
2013-01-15 14:21:00,41.5,41.5,30.15,NE,41,1.0,4.0,100,0.15,,---,1.19,VWS V14.01,2013-01-15 19:21:00,
2013-01-15 14:27:00,41.5,41.5,30.14,NE,41,0.0,0.0,100,0.09,,---,1.19,VWS V14.01,2013-01-15 19:27:00,
2013-01-15 14:33:00,41.6,41.6,30.14,NE,41,0.0,2.0,100,0.10,,---,1.20,VWS V14.01,2013-01-15 19:33:00,
2013-01-15 14:39:00,41.6,41.6,30.13,NE,41,0.0,2.0,100,0.10,,---,1.20,VWS V14.01,2013-01-15 19:39:00,
2013-01-15 14:45:00,41.6,41.6,30.13,NE,41,0.0,1.0,100,0.08,,---,1.20,VWS V14.01,2013-01-15 19:45:00,
2013-01-15 14:51:00,41.6,41.6,30.13,NE,41,1.0,2.0,100,0.08,,---,1.20,VWS V14.01,2013-01-15 19:51:00,
2013-01-15 14:57:00,41.6,41.6,30.13,NE,41,0.0,0.0,100,0.06,,---,1.20,VWS V14.01,2013-01-15 19:57:00,
2013-01-15 15:03:00,41.6,41.6,30.13,NE,41,1.0,1.0,100,0.07,,---,1.21,VWS V14.01,2013-01-15 20:03:00,
2013-01-15 15:09:00,41.6,41.6,30.14,NE,41,0.0,2.0,100,0.07,,---,1.21,VWS V14.01,2013-01-15 20:09:00,
2013-01-15 15:15:00,41.5,41.5,30.14,NE,41,0.0,2.0,100,0.07,,---,1.21,VWS V14.01,2013-01-15 20:15:00,
2013-01-15 15:21:00,41.5,41.5,30.14,NE,41,0.0,2.0,100,0.09,,---,1.23,VWS V14.01,2013-01-15 20:21:00,
2013-01-15 15:27:00,41.5,41.5,30.14,NE,41,0.0,0.0,100,0.04,,---,1.23,VWS V14.01,2013-01-15 20:27:00,
2013-01-15 15:33:00,41.5,41.5,30.14,NE,41,1.0,3.0,100,0.05,,---,1.24,VWS V14.01,2013-01-15 20:33:00,
2013-01-15 15:39:00,41.6,41.6,30.13,ENE,60,0.0,3.0,100,0.06,,---,1.25,VWS V14.01,2013-01-15 20:39:00,
2013-01-15 15:45:00,41.6,41.6,30.13,ENE,60,0.0,2.0,100,0.05,,---,1.25,VWS V14.01,2013-01-15 20:45:00,
2013-01-15 15:51:00,41.6,41.6,30.13,ENE,60,0.0,2.0,100,0.06,,---,1.26,VWS V14.01,2013-01-15 20:51:00,
2013-01-15 15:57:00,41.6,41.6,30.14,ENE,60,0.0,1.0,100,0.06,,---,1.26,VWS V14.01,2013-01-15 20:57:00,
2013-01-15 16:03:00,41.6,41.6,30.14,ENE,60,0.0,2.0,100,0.07,,---,1.27,VWS V14.01,2013-01-15 21:03:00,
2013-01-15 16:09:00,41.6,41.6,30.14,ENE,60,0.0,2.0,100,0.07,,---,1.27,VWS V14.01,2013-01-15 21:09:00,
2013-01-15 16:12:00,41.5,41.5,30.14,ENE,60,0.0,2.0,100,0.08,,---,1.28,VWS V14.01,2013-01-15 21:12:00,
2013-01-15 16:14:00,41.5,41.5,30.14,ENE,60,2.0,3.0,100,0.08,,---,1.28,VWS V14.01,2013-01-15 21:14:00,
2013-01-15 16:15:00,41.5,41.5,30.14,ENE,60,0.0,2.0,100,0.08,,---,1.28,VWS V14.01,2013-01-15 21:15:00,
2013-01-15 16:16:00,41.5,41.5,30.14,ENE,60,0.0,4.0,100,0.05,,---,1.28,VWS V14.01,2013-01-15 21:16:00,
2013-01-15 16:18:00,41.5,41.5,30.14,ENE,60,0.0,4.0,100,0.06,,---,1.29,VWS V14.01,2013-01-15 21:18:00,
2013-01-15 16:20:00,41.5,41.5,30.14,ENE,60,0.0,4.0,100,0.06,,---,1.29,VWS V14.01,2013-01-15 21:20:00,
2013-01-15 16:24:00,41.5,41.5,30.14,ENE,60,2.0,3.0,100,0.08,,---,1.28,VWS V14.01,2013-01-15 21:24:00,
2013-01-15 16:32:00,41.5,41.5,30.14,ENE,60,0.0,4.0,100,0.06,,---,1.29,VWS V14.01,2013-01-15 21:32:00,
2013-01-15 16:38:00,41.5,41.5,30.14,ENE,60,0.0,4.0,100,0.07,,---,1.30,VWS V14.01,2013-01-15 21:38:00,
2013-01-15 16:44:00,41.5,41.5,30.14,ENE,60,0.0,2.0,100,0.06,,---,1.31,VWS V14.01,2013-01-15 21:44:00,
2013-01-15 16:50:00,41.5,41.5,30.14,ENE,61,0.0,3.0,100,0.06,,---,1.31,VWS V14.01,2013-01-15 21:50:00,
2013-01-15 16:56:00,41.3,41.3,30.14,ENE,61,0.0,0.0,100,0.05,,---,1.31,VWS V14.01,2013-01-15 21:56:00,
2013-01-15 17:02:00,41.5,41.5,30.14,ENE,61,0.0,0.0,100,0.05,,---,1.31,VWS V14.01,2013-01-15 22:02:00,
2013-01-15 17:08:00,41.5,41.5,30.14,ENE,61,0.0,2.0,100,0.05,,---,1.31,VWS V14.01,2013-01-15 22:08:00,
2013-01-15 17:14:00,41.5,41.5,30.14,ENE,61,0.0,0.0,100,0.04,,---,1.32,VWS V14.01,2013-01-15 22:14:00,
2013-01-15 17:20:00,41.5,41.5,30.14,ENE,61,0.0,0.0,100,0.04,,---,1.32,VWS V14.01,2013-01-15 22:20:00,
2013-01-15 17:26:00,41.5,41.5,30.15,ENE,61,0.0,0.0,100,0.04,,---,1.32,VWS V14.01,2013-01-15 22:26:00,
2013-01-15 17:32:00,41.5,41.5,30.15,ENE,62,2.0,3.0,100,0.04,,---,1.32,VWS V14.01,2013-01-15 22:32:00,
2013-01-15 17:38:00,41.5,41.5,30.15,ENE,60,0.0,3.0,100,0.04,,---,1.32,VWS V14.01,2013-01-15 22:38:00,
2013-01-15 17:44:00,41.3,41.3,30.15,NNE,32,0.0,3.0,100,0.03,,---,1.33,VWS V14.01,2013-01-15 22:44:00,
2013-01-15 17:50:00,41.3,41.3,30.15,NNE,32,0.0,3.0,100,0.03,,---,1.33,VWS V14.01,2013-01-15 22:50:00,
2013-01-15 17:56:00,41.3,41.3,30.14,East,85,1.0,1.0,100,0.02,,---,1.33,VWS V14.01,2013-01-15 22:56:00,
2013-01-15 18:02:00,41.2,41.2,30.14,East,85,0.0,2.0,100,0.02,,---,1.33,VWS V14.01,2013-01-15 23:02:00,
2013-01-15 18:08:00,41.2,41.2,30.13,East,85,0.0,2.0,100,0.02,,---,1.33,VWS V14.01,2013-01-15 23:08:00,
2013-01-15 18:14:00,41.1,41.1,30.13,East,85,1.0,2.0,100,0.02,,---,1.33,VWS V14.01,2013-01-15 23:14:00,
2013-01-15 18:20:00,41.1,41.1,30.13,ENE,65,0.0,3.0,100,0.02,,---,1.33,VWS V14.01,2013-01-15 23:20:00,
2013-01-15 18:26:00,41.1,41.1,30.13,ENE,65,1.0,1.0,100,0.02,,---,1.34,VWS V14.01,2013-01-15 23:26:00,
2013-01-15 18:32:00,40.9,40.9,30.13,ENE,65,0.0,1.0,100,0.02,,---,1.34,VWS V14.01,2013-01-15 23:32:00,
2013-01-15 18:38:00,40.9,40.9,30.13,ENE,65,1.0,1.0,100,0.03,,---,1.35,VWS V14.01,2013-01-15 23:38:00,
2013-01-15 18:44:00,40.9,40.9,30.13,ENE,65,3.0,3.0,100,0.03,,---,1.35,VWS V14.01,2013-01-15 23:44:00,
2013-01-15 18:50:00,40.8,40.8,30.13,ENE,65,0.0,3.0,100,0.04,,---,1.36,VWS V14.01,2013-01-15 23:50:00,
2013-01-15 18:56:00,40.8,40.8,30.11,ENE,57,0.0,3.0,100,0.03,,---,1.36,VWS V14.01,2013-01-15 23:56:00,
2013-01-15 19:01:00,40.5,40.5,30.11,ENE,59,0.0,3.0,100,0.04,,---,1.37,VWS V14.01,2013-01-16 00:01:00,
2013-01-15 19:02:00,40.6,40.6,30.11,ENE,58,0.0,3.0,100,0.03,,---,1.36,VWS V14.01,2013-01-16 00:02:00,
2013-01-15 19:03:00,40.5,40.5,30.11,ENE,59,0.0,3.0,100,0.04,,---,1.37,VWS V14.01,2013-01-16 00:03:00,
2013-01-15 19:05:00,40.5,40.5,30.11,ENE,59,0.0,3.0,100,0.04,,---,1.37,VWS V14.01,2013-01-16 00:05:00,
2013-01-15 19:07:00,40.5,40.5,30.11,ENE,59,0.0,3.0,100,0.04,,---,1.37,VWS V14.01,2013-01-16 00:07:00,
2013-01-15 19:09:00,40.5,40.5,30.11,ENE,59,0.0,3.0,100,0.04,,---,1.37,VWS V14.01,2013-01-16 00:09:00,
2013-01-15 19:21:00,40.5,40.5,30.11,ENE,59,0.0,3.0,100,0.04,,---,1.37,VWS V14.01,2013-01-16 00:21:00,
2013-01-15 19:27:00,40.2,40.2,30.11,NE,56,0.0,3.0,100,0.06,,---,1.39,VWS V14.01,2013-01-16 00:27:00,
2013-01-15 19:33:00,40.2,40.2,30.11,NNW,346,0.0,3.0,100,0.07,,---,1.40,VWS V14.01,2013-01-16 00:33:00,
2013-01-15 19:39:00,40.1,40.1,30.13,North,1,1.0,3.0,100,0.07,,---,1.40,VWS V14.01,2013-01-16 00:39:00,
2013-01-15 19:45:00,40.1,40.1,30.13,North,1,0.0,3.0,100,0.06,,---,1.41,VWS V14.01,2013-01-16 00:45:00,
2013-01-15 19:51:00,40.1,40.1,30.13,North,1,0.0,3.0,100,0.06,,---,1.41,VWS V14.01,2013-01-16 00:51:00,
2013-01-15 19:57:00,39.9,39.9,30.13,North,1,0.0,3.0,100,0.05,,---,1.41,VWS V14.01,2013-01-16 00:57:00,
2013-01-15 20:03:00,39.9,39.9,30.13,North,1,1.0,4.0,100,0.05,,---,1.41,VWS V14.01,2013-01-16 01:03:00,
2013-01-15 20:09:00,39.9,39.9,30.13,North,1,0.0,4.0,100,0.05,,---,1.41,VWS V14.01,2013-01-16 01:09:00,
2013-01-15 20:15:00,39.9,39.9,30.13,North,1,0.0,2.0,100,0.01,,---,1.41,VWS V14.01,2013-01-16 01:15:00,
2013-01-15 20:21:00,39.9,39.9,30.13,North,1,0.0,2.0,100,0.01,,---,1.42,VWS V14.01,2013-01-16 01:21:00,
2013-01-15 20:27:00,40.1,40.1,30.11,North,1,0.0,0.0,100,0.02,,---,1.42,VWS V14.01,2013-01-16 01:27:00,
2013-01-15 20:33:00,40.1,40.1,30.11,North,1,0.0,0.0,100,0.02,,---,1.42,VWS V14.01,2013-01-16 01:33:00,
2013-01-15 20:39:00,40.1,40.1,30.09,North,1,0.0,3.0,100,0.02,,---,1.42,VWS V14.01,2013-01-16 01:39:00,
2013-01-15 20:45:00,40.1,40.1,30.09,North,1,0.0,2.0,100,0.02,,---,1.42,VWS V14.01,2013-01-16 01:45:00,
2013-01-15 20:51:00,40.1,40.1,30.09,North,1,0.0,2.0,100,0.02,,---,1.42,VWS V14.01,2013-01-16 01:51:00,
2013-01-15 20:57:00,40.1,40.1,30.09,North,1,0.0,1.0,100,0.02,,---,1.43,VWS V14.01,2013-01-16 01:57:00,
2013-01-15 21:03:00,40.1,40.1,30.09,North,1,0.0,2.0,100,0.02,,---,1.43,VWS V14.01,2013-01-16 02:03:00,
2013-01-15 21:09:00,39.9,39.9,30.09,North,1,0.0,2.0,100,0.02,,---,1.43,VWS V14.01,2013-01-16 02:09:00,
2013-01-15 21:15:00,39.9,39.9,30.09,North,1,0.0,2.0,100,0.02,,---,1.43,VWS V14.01,2013-01-16 02:15:00,
2013-01-15 21:21:00,39.9,39.9,30.09,North,1,0.0,2.0,100,0.02,,---,1.43,VWS V14.01,2013-01-16 02:21:00,
2013-01-15 21:27:00,39.8,39.8,30.09,North,1,0.0,2.0,100,0.03,,---,1.44,VWS V14.01,2013-01-16 02:27:00,
2013-01-15 21:33:00,39.8,39.8,30.09,North,1,0.0,2.0,100,0.03,,---,1.44,VWS V14.01,2013-01-16 02:33:00,
2013-01-15 21:39:00,39.8,39.8,30.09,North,1,0.0,2.0,100,0.03,,---,1.44,VWS V14.01,2013-01-16 02:39:00,
2013-01-15 21:45:00,39.8,39.8,30.09,North,1,0.0,2.0,100,0.02,,---,1.44,VWS V14.01,2013-01-16 02:45:00,
2013-01-15 21:46:00,39.8,39.8,30.08,North,1,0.0,0.0,100,0.01,,---,1.44,VWS V14.01,2013-01-16 02:46:00,
2013-01-15 21:48:00,39.8,39.8,30.08,North,1,0.0,0.0,100,0.01,,---,1.44,VWS V14.01,2013-01-16 02:48:00,
2013-01-15 21:51:00,39.8,39.8,30.09,North,1,0.0,2.0,100,0.02,,---,1.44,VWS V14.01,2013-01-16 02:51:00,
2013-01-15 21:52:00,39.6,39.6,30.08,North,1,0.0,2.0,100,0.01,,---,1.44,VWS V14.01,2013-01-16 02:52:00,
2013-01-15 21:56:00,39.6,39.6,30.08,North,1,0.0,2.0,100,0.02,,---,1.45,VWS V14.01,2013-01-16 02:56:00,
2013-01-15 21:58:00,39.6,39.6,30.08,North,1,1.0,2.0,100,0.02,,---,1.45,VWS V14.01,2013-01-16 02:58:00,
2013-01-15 22:00:00,39.6,39.6,30.08,North,1,0.0,2.0,100,0.01,,---,1.44,VWS V14.01,2013-01-16 03:00:00,
2013-01-15 22:04:00,39.6,39.6,30.08,North,1,0.0,2.0,100,0.02,,---,1.45,VWS V14.01,2013-01-16 03:04:00,
2013-01-15 22:12:00,39.6,39.6,30.08,North,1,0.0,2.0,100,0.02,,---,1.45,VWS V14.01,2013-01-16 03:12:00,
2013-01-15 22:18:00,39.6,39.6,30.08,North,1,0.0,2.0,100,0.02,,---,1.45,VWS V14.01,2013-01-16 03:18:00,
2013-01-15 22:24:00,39.6,39.6,30.07,North,1,0.0,2.0,100,0.02,,---,1.45,VWS V14.01,2013-01-16 03:24:00,
2013-01-15 22:30:00,39.5,39.5,30.07,North,1,0.0,1.0,100,0.01,,---,1.45,VWS V14.01,2013-01-16 03:30:00,
2013-01-15 22:36:00,39.5,39.5,30.07,North,1,0.0,1.0,100,0.02,,---,1.46,VWS V14.01,2013-01-16 03:36:00,
2013-01-15 22:42:00,39.3,39.3,30.07,North,1,0.0,0.0,100,0.02,,---,1.46,VWS V14.01,2013-01-16 03:42:00,
2013-01-15 22:48:00,39.3,39.3,30.07,North,1,0.0,0.0,100,0.02,,---,1.46,VWS V14.01,2013-01-16 03:48:00,
2013-01-15 22:54:00,39.3,39.3,30.07,North,1,0.0,1.0,100,0.02,,---,1.46,VWS V14.01,2013-01-16 03:54:00,
2013-01-15 23:00:00,39.2,39.2,30.07,North,1,0.0,2.0,100,0.02,,---,1.46,VWS V14.01,2013-01-16 04:00:00,
2013-01-15 23:06:00,39.2,39.2,30.07,North,1,0.0,2.0,100,0.03,,---,1.47,VWS V14.01,2013-01-16 04:06:00,
2013-01-15 23:12:00,39.2,39.2,30.07,North,1,0.0,1.0,100,0.02,,---,1.47,VWS V14.01,2013-01-16 04:12:00,
2013-01-15 23:18:00,39.2,39.2,30.07,North,1,0.0,2.0,100,0.02,,---,1.47,VWS V14.01,2013-01-16 04:18:00,
2013-01-15 23:24:00,39.2,39.2,30.06,North,1,0.0,2.0,100,0.02,,---,1.47,VWS V14.01,2013-01-16 04:24:00,
2013-01-15 23:30:00,39.1,39.1,30.06,North,1,0.0,2.0,100,0.02,,---,1.47,VWS V14.01,2013-01-16 04:30:00,
2013-01-15 23:36:00,38.9,38.9,30.06,North,1,1.0,2.0,100,0.02,,---,1.47,VWS V14.01,2013-01-16 04:36:00,
2013-01-15 23:42:00,38.9,38.9,30.06,North,1,0.0,2.0,100,0.01,,---,1.47,VWS V14.01,2013-01-16 04:42:00,
2013-01-15 23:48:00,38.9,38.9,30.06,North,1,0.0,2.0,100,0.01,,---,1.47,VWS V14.01,2013-01-16 04:48:00,
2013-01-15 23:53:00,38.9,38.9,30.05,North,1,0.0,0.0,100,0.01,,---,1.47,VWS V14.01,2013-01-16 04:53:00,
2013-01-15 23:54:00,38.9,38.9,30.05,North,1,0.0,2.0,100,0.01,,---,1.47,VWS V14.01,2013-01-16 04:54:00,
2013-01-15 23:55:00,38.9,38.9,30.05,North,1,0.0,0.0,100,0.01,,---,1.47,VWS V14.01,2013-01-16 04:55:00,
2013-01-15 23:57:00,38.9,38.9,30.05,North,1,0.0,0.0,100,0.01,,---,1.47,VWS V14.01,2013-01-16 04:57:00,
2013-01-15 23:59:00,38.9,38.9,30.05,North,1,0.0,0.0,100,0.01,,---,1.47,VWS V14.01,2013-01-16 04:59:00,